Time;durP1;ratioP1;P1;durP2;ratioP2;P2;SDS_P1;SDS_P2;PMS_P1;PMS_P2;Temp;Humidity;BMP_temperature;BMP_pressure;BME280_temperature;BME280_humidity;BME280_pressure;Samples;Min_cycle;Max_cycle;Signal;HPM_P1;HPM_P2
2022/11/17 00:01:58;;;;;;;5.80;1.30;;;10.50;99.90;;;;;;5074407;28;20260;-76
2022/11/17 00:04:25;;;;;;;3.50;1.20;;;10.50;99.90;;;;;;5075603;28;20245;-77
2022/11/17 00:06:51;;;;;;;5.17;1.27;;;10.50;99.90;;;;;;5075062;28;20167;-76
2022/11/17 00:09:17;;;;;;;4.10;1.50;;;10.50;99.90;;;;;;5075769;28;20177;-77
2022/11/17 00:14:31;;;;;;;6.50;1.13;;;10.50;99.90;;;;;;5075813;28;20740;-76
2022/11/17 00:16:57;;;;;;;4.00;1.10;;;10.50;99.90;;;;;;5074165;28;20178;-77
2022/11/17 00:22:06;;;;;;;4.43;1.13;;;10.40;99.90;;;;;;5076108;28;20198;-77
2022/11/17 00:24:32;;;;;;;4.50;1.37;;;10.40;99.90;;;;;;5075237;28;20198;-76
2022/11/17 00:27:00;;;;;;;3.77;1.27;;;10.50;99.90;;;;;;5075297;28;20172;-77
2022/11/17 00:29:26;;;;;;;3.07;1.43;;;10.40;99.90;;;;;;5075577;28;20178;-77
2022/11/17 00:34:37;;;;;;;4.23;1.40;;;10.40;99.90;;;;;;5075259;28;20217;-76
2022/11/17 00:37:03;;;;;;;5.03;1.30;;;10.40;99.90;;;;;;5075108;28;20172;-77
2022/11/17 00:39:29;;;;;;;7.43;1.87;;;10.40;99.90;;;;;;5073657;28;20210;-76
2022/11/17 00:41:55;;;;;;;4.30;1.50;;;10.40;99.90;;;;;;5075047;28;20167;-76
2022/11/17 00:44:21;;;;;;;4.00;1.20;;;10.40;99.90;;;;;;5074902;28;20211;-76
2022/11/17 00:46:47;;;;;;;4.43;1.40;;;10.40;99.90;;;;;;5073563;28;20163;-76
2022/11/17 00:49:13;;;;;;;6.93;1.13;;;10.40;99.90;;;;;;5073541;28;20224;-76
2022/11/17 00:51:39;;;;;;;3.47;1.20;;;10.40;99.90;;;;;;5075296;28;20544;-76
2022/11/17 00:54:06;;;;;;;2.83;1.47;;;10.40;99.90;;;;;;5074774;28;20661;-76
2022/11/17 00:56:32;;;;;;;3.50;1.07;;;10.40;99.90;;;;;;5073406;28;20183;-76
2022/11/17 00:58:58;;;;;;;1.40;0.93;;;10.40;99.90;;;;;;5074897;28;20191;-76
2022/11/17 01:01:24;;;;;;;4.53;1.20;;;10.40;99.90;;;;;;5074611;28;20301;-76
2022/11/17 01:03:49;;;;;;;2.93;1.33;;;10.40;99.90;;;;;;5074460;28;20262;-76
2022/11/17 01:06:18;;;;;;;4.43;1.20;;;10.40;99.90;;;;;;5074754;28;20178;-76
2022/11/17 01:08:44;;;;;;;1.47;0.80;;;10.40;99.90;;;;;;5074403;28;20725;-76
2022/11/17 01:11:15;;;;;;;1.80;1.00;;;10.40;99.90;;;;;;5074317;28;20179;-76
2022/11/17 01:13:44;;;;;;;4.43;1.03;;;10.40;99.90;;;;;;5074531;28;20233;-76
2022/11/17 01:16:15;;;;;;;5.43;1.20;;;10.40;99.90;;;;;;5074361;28;20553;-76
2022/11/17 01:18:42;;;;;;;4.97;1.00;;;10.40;99.90;;;;;;5074165;28;20202;-76
2022/11/17 01:21:14;;;;;;;1.93;0.90;;;10.40;99.90;;;;;;5072781;28;20175;-76
2022/11/17 01:23:41;;;;;;;2.47;1.03;;;10.40;99.90;;;;;;5072812;28;20202;-75
2022/11/17 01:26:10;;;;;;;2.07;1.03;;;10.40;99.90;;;;;;5074237;28;20209;-76
2022/11/17 01:28:36;;;;;;;2.37;1.03;;;10.40;99.90;;;;;;5073861;28;20183;-76
2022/11/17 01:31:09;;;;;;;3.47;0.87;;;10.40;99.90;;;;;;5072615;28;20198;-75
2022/11/17 01:33:35;;;;;;;4.30;0.77;;;10.40;99.90;;;;;;5073706;28;20271;-76
2022/11/17 01:36:12;;;;;;;2.40;1.00;;;10.40;99.90;;;;;;5073861;28;20660;-76
2022/11/17 01:38:38;;;;;;;3.10;1.30;;;10.40;99.90;;;;;;5072445;28;20159;-76
2022/11/17 01:41:05;;;;;;;2.20;0.90;;;10.40;99.90;;;;;;5072529;28;20181;-76
2022/11/17 01:43:49;;;;;;;3.07;0.90;;;10.40;99.90;;;;;;5073703;28;20183;-76
2022/11/17 01:46:35;;;;;;;2.53;0.90;;;10.40;99.90;;;;;;5072488;28;20174;-76
2022/11/17 01:49:08;;;;;;;1.93;0.80;;;10.40;99.90;;;;;;5072498;28;20261;-76
2022/11/17 01:51:37;;;;;;;2.73;0.97;;;10.40;99.90;;;;;;5072296;28;20254;-76
2022/11/17 01:54:03;;;;;;;2.77;1.13;;;10.40;99.90;;;;;;5073514;28;20536;-76
2022/11/17 01:56:33;;;;;;;3.80;1.07;;;10.40;99.90;;;;;;5073505;28;20190;-76
2022/11/17 01:59:08;;;;;;;3.03;0.90;;;10.40;99.90;;;;;;5073741;28;20269;-76
2022/11/17 02:01:54;;;;;;;1.80;0.90;;;10.40;99.90;;;;;;5073678;28;20162;-76
2022/11/17 02:04:22;;;;;;;2.40;1.10;;;10.40;99.90;;;;;;5073504;28;20244;-76
2022/11/17 02:06:50;;;;;;;2.73;1.17;;;10.40;99.90;;;;;;5073322;28;20716;-76
2022/11/17 02:09:16;;;;;;;2.93;1.00;;;10.40;99.90;;;;;;5073248;28;20240;-77
2022/11/17 02:11:42;;;;;;;3.83;0.93;;;10.40;99.90;;;;;;5073511;28;20696;-77
2022/11/17 02:14:07;;;;;;;4.07;1.13;;;10.40;99.90;;;;;;5073195;28;20213;-75
2022/11/17 02:16:33;;;;;;;1.87;0.87;;;10.40;99.90;;;;;;5071863;28;20547;-75
2022/11/17 02:18:58;;;;;;;6.23;1.90;;;10.40;99.90;;;;;;5071757;28;20285;-76
2022/11/17 02:22:11;;;;;;;5.27;1.40;;;10.40;99.90;;;;;;5073363;28;20185;-76
2022/11/17 02:24:36;;;;;;;3.27;1.07;;;10.30;99.90;;;;;;5071642;28;20240;-76
2022/11/17 02:27:33;;;;;;;3.53;0.97;;;10.30;99.90;;;;;;5073063;28;20178;-76
2022/11/17 02:30:16;;;;;;;6.67;1.20;;;10.40;99.90;;;;;;5072655;28;20334;-76
2022/11/17 02:33:11;;;;;;;4.13;1.13;;;10.30;99.90;;;;;;5071539;28;20253;-76
2022/11/17 02:36:03;;;;;;;5.67;1.23;;;10.30;99.90;;;;;;5072944;28;20179;-76
2022/11/17 02:38:39;;;;;;;4.20;1.20;;;10.30;99.90;;;;;;5073073;28;20212;-76
2022/11/17 02:41:33;;;;;;;3.93;1.13;;;10.30;99.90;;;;;;5073079;28;20522;-76
2022/11/17 02:44:17;;;;;;;1.97;0.90;;;10.30;99.90;;;;;;5073027;28;20676;-75
2022/11/17 02:46:46;;;;;;;3.33;0.90;;;10.30;99.90;;;;;;5071431;28;20167;-76
2022/11/17 02:49:14;;;;;;;2.03;1.03;;;10.40;99.90;;;;;;5071538;28;20645;-76
2022/11/17 02:51:41;;;;;;;4.40;1.30;;;10.40;99.90;;;;;;5073149;28;20175;-76
2022/11/17 02:54:08;;;;;;;3.80;1.20;;;10.30;99.90;;;;;;5072686;28;20195;-74
2022/11/17 02:56:38;;;;;;;2.77;1.03;;;10.40;99.90;;;;;;5071434;28;20174;-76
2022/11/17 02:59:04;;;;;;;5.80;1.40;;;10.40;99.90;;;;;;5071476;28;20221;-76
2022/11/17 03:01:50;;;;;;;2.10;1.00;;;10.40;99.90;;;;;;5073044;28;20171;-76
2022/11/17 03:04:40;;;;;;;1.97;0.73;;;10.40;99.90;;;;;;5072686;28;20576;-76
2022/11/17 03:07:09;;;;;;;6.83;1.20;;;10.40;99.90;;;;;;5071493;28;20175;-76
2022/11/17 03:09:46;;;;;;;2.50;0.90;;;10.30;99.90;;;;;;5071350;28;20175;-76
2022/11/17 03:12:20;;;;;;;3.43;1.20;;;10.30;99.90;;;;;;5072571;28;20225;-77
2022/11/17 03:15:14;;;;;;;3.47;1.13;;;10.30;99.90;;;;;;5072606;28;20181;-76
2022/11/17 03:17:58;;;;;;;2.77;1.13;;;10.40;99.90;;;;;;5072769;28;20191;-75
2022/11/17 03:20:40;;;;;;;4.40;1.20;;;10.30;99.90;;;;;;5073037;28;20187;-76
2022/11/17 03:23:16;;;;;;;5.97;1.30;;;10.30;99.90;;;;;;5072472;28;20187;-76
2022/11/17 03:25:47;;;;;;;2.47;1.00;;;10.30;99.90;;;;;;5072705;28;20166;-76
2022/11/17 03:28:15;;;;;;;2.80;0.90;;;10.30;99.90;;;;;;5073111;28;20561;-76
2022/11/17 03:30:44;;;;;;;4.00;0.93;;;10.30;99.90;;;;;;5072399;28;20173;-75
2022/11/17 03:33:15;;;;;;;2.73;1.00;;;10.30;99.90;;;;;;5072169;28;20714;-76
2022/11/17 03:35:53;;;;;;;2.77;1.00;;;10.30;99.90;;;;;;5072707;28;20529;-76
2022/11/17 03:38:23;;;;;;;3.30;0.97;;;10.30;99.90;;;;;;5070970;28;20197;-76
2022/11/17 03:40:52;;;;;;;2.50;1.30;;;10.30;99.90;;;;;;5072598;28;20560;-76
2022/11/17 03:43:19;;;;;;;2.67;1.00;;;10.30;99.90;;;;;;5076081;28;20274;-76
2022/11/17 03:45:48;;;;;;;6.10;1.00;;;10.30;99.90;;;;;;5075895;28;20543;-76
2022/11/17 03:48:52;;;;;;;1.97;1.07;;;10.30;99.90;;;;;;5074581;28;20206;-75
2022/11/17 03:51:23;;;;;;;5.00;0.90;;;10.20;99.90;;;;;;5075769;28;20183;-76
2022/11/17 03:53:49;;;;;;;1.70;0.90;;;10.20;99.90;;;;;;5074419;28;20212;-76
2022/11/17 03:56:27;;;;;;;1.93;1.00;;;10.30;99.90;;;;;;5075724;28;20637;-76
2022/11/17 03:59:33;;;;;;;1.43;0.90;;;10.30;99.90;;;;;;5075796;28;20187;-76
2022/11/17 04:01:59;;;;;;;2.53;0.90;;;10.30;99.90;;;;;;5014144;28;20181;-76
2022/11/17 04:05:04;;;;;;;2.20;0.80;;;10.20;99.90;;;;;;5062790;28;20700;-76
2022/11/17 04:07:10;;;;;;;1.70;0.97;;;10.10;99.90;;;;;;5075386;28;20252;-76
2022/11/17 04:09:35;;;;;;;5.80;1.17;;;10.20;99.90;;;;;;5075781;28;20202;-76
2022/11/17 04:17:28;;;;;;;2.90;1.10;;;10.10;99.90;;;;;;5075487;28;20162;-76
2022/11/17 04:19:54;;;;;;;2.40;1.10;;;10.10;99.90;;;;;;5075241;28;20198;-76
2022/11/17 04:22:19;;;;;;;1.37;0.97;;;10.10;99.90;;;;;;5075240;28;20171;-76
2022/11/17 04:24:45;;;;;;;1.53;1.00;;;10.10;99.90;;;;;;5074905;28;20197;-76
2022/11/17 04:29:54;;;;;;;1.80;1.20;;;10.10;99.90;;;;;;5075214;28;20162;-77
2022/11/17 04:32:20;;;;;;;3.47;1.10;;;10.10;99.90;;;;;;5074928;28;20171;-76
2022/11/17 04:34:45;;;;;;;1.83;1.03;;;10.00;99.90;;;;;;5073871;28;20233;-76
2022/11/17 04:37:16;;;;;;;3.13;1.00;;;10.10;99.90;;;;;;5075003;28;20182;-77
2022/11/17 04:39:42;;;;;;;2.97;1.00;;;10.10;99.90;;;;;;5074505;28;20228;-76
2022/11/17 04:42:08;;;;;;;2.37;1.00;;;10.10;99.90;;;;;;5073632;28;20175;-76
2022/11/17 04:44:33;;;;;;;1.37;0.70;;;10.10;99.90;;;;;;5074846;28;20277;-76
2022/11/17 04:47:01;;;;;;;0.97;0.80;;;10.00;99.90;;;;;;5075061;28;20170;-77
2022/11/17 04:49:28;;;;;;;1.20;0.80;;;10.10;99.90;;;;;;5074815;28;20541;-76
2022/11/17 04:51:53;;;;;;;1.40;0.70;;;10.00;99.90;;;;;;5074511;28;20214;-77
2022/11/17 04:54:22;;;;;;;1.70;0.80;;;10.00;99.90;;;;;;5074711;28;20194;-77
2022/11/17 04:56:48;;;;;;;2.57;0.73;;;10.00;99.90;;;;;;5074684;28;20226;-77
2022/11/17 04:59:14;;;;;;;1.77;1.00;;;10.00;99.90;;;;;;5074532;28;20202;-76
2022/11/17 05:01:39;;;;;;;4.13;0.80;;;10.00;99.90;;;;;;5073267;28;20175;-76
2022/11/17 05:04:07;;;;;;;4.10;0.80;;;10.00;99.90;;;;;;5074579;28;20219;-77
2022/11/17 05:06:44;;;;;;;3.53;1.00;;;10.00;99.90;;;;;;5074540;28;20195;-76
2022/11/17 05:09:15;;;;;;;4.20;0.90;;;10.00;99.90;;;;;;5073303;28;20167;-76
2022/11/17 05:14:27;;;;;;;3.93;0.90;;;10.10;99.90;;;;;;5074924;28;20830;-76
2022/11/17 05:17:04;;;;;;;3.07;1.00;;;10.10;99.90;;;;;;5074337;28;20175;-76
2022/11/17 05:19:39;;;;;;;1.43;0.90;;;10.10;99.90;;;;;;5074203;28;20187;-76
2022/11/17 05:23:52;;;;;;;3.33;0.90;;;10.10;99.90;;;;;;5072874;28;20632;-76
2022/11/17 05:24:52;;;;;;;3.27;0.93;;;10.20;99.90;;;;;;5073972;28;20179;-76
2022/11/17 05:27:18;;;;;;;3.03;0.80;;;10.20;99.90;;;;;;5072839;28;20185;-76
2022/11/17 05:29:44;;;;;;;1.27;0.80;;;10.20;99.90;;;;;;5072741;28;20175;-76
2022/11/17 05:32:10;;;;;;;3.90;1.53;;;10.20;99.90;;;;;;5074534;28;20509;-76
2022/11/17 05:34:36;;;;;;;3.07;1.23;;;10.20;99.90;;;;;;5073769;28;20232;-76
2022/11/17 05:37:01;;;;;;;2.67;1.20;;;10.20;99.90;;;;;;5074365;28;20249;-76
2022/11/17 05:39:27;;;;;;;8.00;1.23;;;10.20;99.90;;;;;;5072463;28;20225;-76
2022/11/17 05:41:52;;;;;;;2.93;1.10;;;10.20;99.90;;;;;;5072494;28;20263;-76
2022/11/17 05:44:18;;;;;;;2.90;1.00;;;10.20;99.90;;;;;;5073734;28;20198;-76
2022/11/17 05:46:43;;;;;;;3.23;1.10;;;10.20;99.90;;;;;;5072393;28;20167;-75
2022/11/17 05:49:09;;;;;;;2.70;1.10;;;10.20;99.90;;;;;;5072327;28;20179;-76
2022/11/17 05:51:36;;;;;;;2.17;0.83;;;10.20;99.90;;;;;;5074199;28;20572;-76
2022/11/17 05:54:02;;;;;;;2.47;1.00;;;10.20;99.90;;;;;;5072959;28;20198;-77
2022/11/17 05:56:37;;;;;;;3.20;1.00;;;10.20;99.90;;;;;;5073660;28;20572;-77
2022/11/17 05:59:08;;;;;;;4.23;0.90;;;10.20;99.90;;;;;;5072144;28;20190;-77
2022/11/17 06:01:36;;;;;;;3.57;1.27;;;10.20;99.90;;;;;;5073665;28;20167;-76
2022/11/17 06:04:04;;;;;;;2.97;0.80;;;10.20;99.90;;;;;;5072741;28;20215;-77
2022/11/17 06:06:30;;;;;;;4.10;1.10;;;10.20;99.90;;;;;;5072016;28;20177;-77
2022/11/17 06:08:55;;;;;;;2.20;1.20;;;10.20;99.90;;;;;;5073595;28;20256;-77
2022/11/17 06:11:21;;;;;;;2.33;1.10;;;10.20;99.90;;;;;;5073316;28;20641;-76
2022/11/17 06:13:46;;;;;;;1.87;1.10;;;10.20;99.90;;;;;;5073649;28;20676;-77
2022/11/17 06:16:15;;;;;;;3.97;1.13;;;10.20;99.90;;;;;;5073537;28;20175;-77
2022/11/17 06:18:47;;;;;;;5.87;1.10;;;10.20;99.90;;;;;;5073243;28;20167;-76
2022/11/17 06:21:14;;;;;;;3.40;1.20;;;10.20;99.90;;;;;;5073324;28;20155;-77
2022/11/17 06:23:40;;;;;;;2.40;1.20;;;10.20;99.90;;;;;;5072997;28;20191;-76
2022/11/17 06:26:08;;;;;;;1.67;0.90;;;10.30;99.90;;;;;;5073098;28;20206;-77
2022/11/17 06:28:35;;;;;;;2.50;0.87;;;10.30;99.90;;;;;;5073062;28;20186;-77
2022/11/17 06:31:01;;;;;;;1.23;0.80;;;10.30;99.90;;;;;;5073083;28;20645;-76
2022/11/17 06:33:29;;;;;;;2.77;1.00;;;10.30;99.90;;;;;;5073041;28;20202;-77
2022/11/17 06:35:55;;;;;;;4.87;1.17;;;10.30;99.90;;;;;;5073309;28;20217;-77
2022/11/17 06:38:21;;;;;;;2.90;0.97;;;10.30;99.90;;;;;;5073020;28;20549;-76
2022/11/17 06:40:46;;;;;;;7.83;1.03;;;10.30;99.90;;;;;;5072870;28;20292;-77
2022/11/17 06:43:12;;;;;;;1.53;0.80;;;10.30;99.90;;;;;;5072921;28;20191;-76
2022/11/17 06:45:43;;;;;;;5.00;1.17;;;10.30;99.90;;;;;;5072178;28;20651;-77
2022/11/17 06:48:10;;;;;;;2.33;1.00;;;10.30;99.90;;;;;;5073189;28;20185;-77
2022/11/17 06:50:36;;;;;;;1.30;0.90;;;10.30;99.90;;;;;;5073328;28;20178;-77
2022/11/17 06:53:05;;;;;;;3.83;1.20;;;10.30;99.90;;;;;;5073044;28;20187;-77
2022/11/17 06:55:31;;;;;;;1.40;0.90;;;10.40;99.90;;;;;;5071567;28;20719;-77
2022/11/17 06:57:59;;;;;;;7.33;1.17;;;10.30;99.90;;;;;;5073012;28;20236;-77
2022/11/17 07:00:25;;;;;;;3.07;1.63;;;10.30;99.90;;;;;;5072773;28;20584;-77
2022/11/17 07:02:50;;;;;;;3.63;0.97;;;10.30;99.90;;;;;;5072853;28;20270;-77
2022/11/17 07:05:16;;;;;;;4.27;1.10;;;10.30;99.90;;;;;;5073130;28;20185;-78
2022/11/17 07:07:41;;;;;;;2.77;1.10;;;10.20;99.90;;;;;;5073122;28;20200;-77
2022/11/17 07:10:07;;;;;;;3.03;0.87;;;10.20;99.90;;;;;;5071664;28;20178;-77
2022/11/17 07:12:33;;;;;;;3.70;0.83;;;10.20;99.90;;;;;;5072840;28;20175;-77
2022/11/17 07:14:58;;;;;;;1.57;0.87;;;10.20;99.90;;;;;;5073359;28;20186;-77
2022/11/17 07:17:24;;;;;;;3.60;1.07;;;10.20;99.90;;;;;;5077260;28;20265;-77
2022/11/17 07:19:49;;;;;;;2.13;0.80;;;10.20;99.90;;;;;;5077137;28;20310;-77
2022/11/17 07:22:15;;;;;;;3.07;1.10;;;10.20;99.90;;;;;;5075848;28;20193;-77
2022/11/17 07:24:40;;;;;;;3.53;1.07;;;10.30;99.90;;;;;;5077397;28;20190;-77
2022/11/17 07:27:06;;;;;;;6.23;1.20;;;10.30;99.90;;;;;;5075599;28;20213;-76
2022/11/17 07:29:32;;;;;;;5.80;1.10;;;10.30;99.90;;;;;;5077354;28;20189;-77
2022/11/17 07:31:57;;;;;;;2.47;1.20;;;10.30;99.90;;;;;;5075525;28;20640;-78
2022/11/17 07:34:23;;;;;;;1.63;0.87;;;10.30;99.90;;;;;;5075480;28;20206;-77
2022/11/17 07:36:48;;;;;;;3.17;1.00;;;10.40;99.90;;;;;;5078086;28;20254;-78
2022/11/17 07:39:14;;;;;;;6.13;1.60;;;10.40;99.90;;;;;;5078092;28;20203;-78
2022/11/17 07:41:40;;;;;;;3.53;1.27;;;10.40;99.90;;;;;;5077860;28;20246;-77
2022/11/17 07:44:06;;;;;;;5.30;1.10;;;10.40;99.90;;;;;;5076542;28;20256;-78
2022/11/17 07:46:31;;;;;;;2.33;1.07;;;10.40;99.90;;;;;;5076523;28;20170;-78
2022/11/17 07:48:57;;;;;;;2.20;1.00;;;10.40;99.90;;;;;;5077714;28;20167;-77
2022/11/17 07:51:23;;;;;;;2.63;1.10;;;10.40;99.90;;;;;;5077259;28;20251;-78
2022/11/17 07:53:48;;;;;;;2.53;0.90;;;10.40;99.90;;;;;;5076293;28;20199;-78
2022/11/17 07:56:14;;;;;;;1.23;0.70;;;10.40;99.90;;;;;;5077227;28;20178;-78
2022/11/17 07:58:40;;;;;;;4.10;0.97;;;10.50;99.90;;;;;;5075808;28;20194;-77
2022/11/17 08:01:14;;;;;;;2.83;1.20;;;10.40;99.90;;;;;;5076768;28;20564;-78
2022/11/17 08:03:40;;;;;;;1.10;0.60;;;10.40;99.90;;;;;;5075718;28;20194;-78
2022/11/17 08:06:08;;;;;;;1.43;0.90;;;10.40;99.90;;;;;;5076197;28;20182;-78
2022/11/17 08:08:34;;;;;;;1.33;0.90;;;10.40;99.90;;;;;;5076237;28;20195;-78
2022/11/17 08:11:10;;;;;;;1.33;0.50;;;10.40;99.90;;;;;;5076723;28;20210;-78
2022/11/17 08:13:38;;;;;;;1.80;0.80;;;10.40;99.90;;;;;;5077528;28;20197;-78
2022/11/17 08:16:04;;;;;;;2.97;0.80;;;10.30;99.90;;;;;;5077212;28;20178;-78
2022/11/17 08:18:30;;;;;;;1.33;0.70;;;10.40;99.90;;;;;;5075823;28;20270;-78
2022/11/17 08:21:03;;;;;;;2.73;0.90;;;10.40;99.90;;;;;;5076805;28;20259;-78
2022/11/17 08:23:29;;;;;;;0.53;0.50;;;10.30;99.90;;;;;;5076876;28;20191;-78
2022/11/17 08:25:55;;;;;;;1.60;0.83;;;10.30;99.90;;;;;;5075567;28;20544;-78
2022/11/17 08:28:21;;;;;;;1.10;0.80;;;10.40;99.90;;;;;;5074920;28;20224;-77
2022/11/17 08:30:46;;;;;;;0.77;0.60;;;10.40;99.90;;;;;;5075919;28;20567;-77
2022/11/17 08:33:12;;;;;;;3.50;0.73;;;10.40;99.90;;;;;;5077073;28;20202;-77
2022/11/17 08:35:38;;;;;;;2.40;0.70;;;10.30;99.90;;;;;;5077204;28;20167;-78
2022/11/17 08:38:04;;;;;;;2.90;1.10;;;10.40;99.90;;;;;;5076666;28;20182;-77
2022/11/17 08:40:30;;;;;;;3.93;0.90;;;10.40;99.90;;;;;;5076145;28;20195;-77
2022/11/17 08:42:55;;;;;;;1.87;0.80;;;10.40;99.90;;;;;;5076112;28;20634;-77
2022/11/17 08:45:21;;;;;;;4.87;1.10;;;10.40;99.90;;;;;;5076523;28;20163;-78
2022/11/17 08:47:46;;;;;;;3.00;1.00;;;10.40;99.90;;;;;;5076660;28;20178;-78
2022/11/17 08:50:12;;;;;;;3.07;0.60;;;10.40;99.90;;;;;;5076934;28;20202;-77
2022/11/17 08:52:38;;;;;;;3.80;1.27;;;10.40;99.90;;;;;;5075261;28;20294;-77
2022/11/17 08:55:04;;;;;;;1.97;0.77;;;10.40;99.90;;;;;;5075001;28;20194;-78
2022/11/17 08:57:30;;;;;;;1.70;1.00;;;10.40;99.90;;;;;;5076009;28;20167;-77
2022/11/17 08:59:56;;;;;;;2.30;1.10;;;10.40;99.90;;;;;;5076094;28;20684;-77
2022/11/17 09:02:21;;;;;;;1.00;0.60;;;10.50;99.90;;;;;;5074952;28;20167;-78
2022/11/17 09:04:47;;;;;;;3.70;0.73;;;10.50;99.90;;;;;;5076371;28;20257;-78
2022/11/17 09:07:13;;;;;;;1.93;0.60;;;10.60;99.90;;;;;;5076140;28;20534;-78
2022/11/17 09:09:38;;;;;;;3.57;0.80;;;10.60;99.90;;;;;;5074703;28;20178;-78
2022/11/17 09:12:04;;;;;;;1.87;0.70;;;10.60;99.90;;;;;;5076122;28;20221;-77
2022/11/17 09:14:30;;;;;;;3.47;0.93;;;10.60;99.90;;;;;;5074509;28;20201;-78
2022/11/17 09:16:56;;;;;;;3.73;1.00;;;10.70;99.90;;;;;;5074670;28;20171;-78
2022/11/17 09:19:22;;;;;;;5.83;1.23;;;10.70;99.90;;;;;;5076488;28;20238;-78
2022/11/17 09:21:47;;;;;;;2.47;1.13;;;10.80;99.90;;;;;;5075774;28;20530;-78
2022/11/17 09:24:13;;;;;;;3.13;1.00;;;10.80;99.90;;;;;;5075164;28;20194;-78
2022/11/17 09:26:39;;;;;;;3.17;1.03;;;10.90;99.90;;;;;;5076394;28;20216;-78
2022/11/17 09:29:06;;;;;;;2.97;1.00;;;10.80;99.90;;;;;;5075951;28;20543;-78
2022/11/17 09:31:32;;;;;;;2.27;1.10;;;10.90;99.90;;;;;;5074794;28;20177;-78
2022/11/17 09:33:57;;;;;;;3.47;1.20;;;10.90;99.90;;;;;;5076022;28;20207;-78
2022/11/17 09:36:23;;;;;;;1.77;1.00;;;10.90;99.90;;;;;;5075840;28;20174;-78
2022/11/17 09:38:49;;;;;;;2.73;1.30;;;10.90;99.90;;;;;;5074933;28;20171;-78
2022/11/17 09:41:15;;;;;;;3.60;0.80;;;10.90;99.90;;;;;;5075910;28;20174;-78
2022/11/17 09:44:00;;;;;;;2.47;0.90;;;10.90;99.90;;;;;;5075869;28;20182;-78
2022/11/17 09:46:54;;;;;;;1.43;0.80;;;11.00;99.90;;;;;;5076258;28;20163;-78
2022/11/17 09:49:23;;;;;;;2.97;0.90;;;11.00;99.90;;;;;;5076514;28;20160;-78
2022/11/17 09:51:50;;;;;;;3.87;1.30;;;11.00;99.90;;;;;;5074578;28;20181;-78
2022/11/17 09:54:45;;;;;;;2.33;0.97;;;11.00;99.90;;;;;;5074751;28;20233;-78
2022/11/17 09:57:21;;;;;;;4.70;0.90;;;11.00;99.90;;;;;;5074606;28;20285;-78
2022/11/17 10:00:23;;;;;;;2.00;0.90;;;11.00;99.90;;;;;;5074345;28;20225;-78
2022/11/17 10:02:50;;;;;;;1.37;0.60;;;11.00;99.90;;;;;;5041858;28;20229;-78
2022/11/17 10:05:25;;;;;;;1.70;0.80;;;11.10;99.90;;;;;;5074518;28;20167;-78
2022/11/17 10:07:55;;;;;;;2.93;0.80;;;11.10;99.90;;;;;;5076037;28;20187;-78
2022/11/17 10:10:47;;;;;;;1.00;0.70;;;11.10;99.90;;;;;;5075683;28;20209;-78
2022/11/17 10:13:35;;;;;;;3.67;0.73;;;11.20;99.90;;;;;;5067871;28;20583;-78
2022/11/17 10:16:06;;;;;;;2.57;0.70;;;11.20;99.90;;;;;;5075603;28;20167;-78
2022/11/17 10:18:36;;;;;;;0.77;0.67;;;11.20;99.90;;;;;;5075180;28;20179;-78
2022/11/17 10:21:02;;;;;;;1.17;0.73;;;11.30;99.90;;;;;;5074125;28;20585;-78
2022/11/17 10:23:34;;;;;;;1.73;0.67;;;11.30;99.90;;;;;;5075472;28;20681;-78
2022/11/17 10:25:59;;;;;;;1.80;0.73;;;11.40;99.90;;;;;;5074168;28;20171;-78
2022/11/17 10:28:29;;;;;;;2.60;0.77;;;11.40;99.90;;;;;;5075399;28;20159;-78
2022/11/17 10:31:16;;;;;;;2.67;0.53;;;11.40;99.90;;;;;;5073843;28;20182;-78
2022/11/17 10:33:47;;;;;;;0.80;0.60;;;11.50;99.90;;;;;;5074062;28;20213;-78
2022/11/17 10:36:28;;;;;;;3.47;0.60;;;11.50;99.90;;;;;;5074148;28;20171;-78
2022/11/17 10:38:56;;;;;;;2.40;0.77;;;11.60;99.90;;;;;;5075425;28;20158;-78
2022/11/17 10:41:27;;;;;;;1.00;0.40;;;11.60;99.90;;;;;;5073764;28;20256;-78
2022/11/17 10:43:58;;;;;;;5.33;0.73;;;11.60;99.90;;;;;;5075577;28;20199;-78
2022/11/17 10:46:24;;;;;;;1.83;0.60;;;11.60;99.90;;;;;;5075298;28;20648;-78
2022/11/17 10:48:56;;;;;;;0.83;0.40;;;11.60;99.90;;;;;;5073767;28;20171;-78
2022/11/17 10:51:25;;;;;;;1.20;0.40;;;11.70;99.90;;;;;;5073705;28;20171;-78
2022/11/17 10:54:19;;;;;;;1.67;0.30;;;11.70;99.90;;;;;;5073975;28;20270;-78
2022/11/17 10:56:54;;;;;;;2.10;0.50;;;11.70;99.90;;;;;;5075045;28;20159;-78
2022/11/17 10:59:31;;;;;;;2.37;0.43;;;11.80;99.90;;;;;;5073711;28;20206;-78
2022/11/17 11:01:57;;;;;;;0.40;0.40;;;11.80;99.90;;;;;;5075441;28;20245;-78
2022/11/17 11:04:40;;;;;;;1.27;0.50;;;11.80;99.90;;;;;;5075352;28;20331;-78
2022/11/17 11:07:21;;;;;;;3.27;0.70;;;11.80;99.90;;;;;;5075791;28;20151;-78
2022/11/17 11:10:01;;;;;;;1.27;0.60;;;11.80;99.90;;;;;;5075807;28;20167;-78
2022/11/17 11:12:40;;;;;;;0.40;0.30;;;11.80;99.90;;;;;;5074033;28;20200;-78
2022/11/17 11:15:12;;;;;;;3.40;0.50;;;11.80;99.90;;;;;;5075615;28;20240;-78
2022/11/17 11:17:38;;;;;;;0.93;0.43;;;11.80;99.90;;;;;;5076141;28;20183;-78
2022/11/17 11:20:11;;;;;;;2.90;0.80;;;11.80;99.90;;;;;;5073935;28;20708;-78
2022/11/17 11:22:50;;;;;;;1.30;0.40;;;11.80;99.90;;;;;;5074144;28;20191;-78
2022/11/17 11:25:35;;;;;;;0.93;0.50;;;11.90;99.90;;;;;;5075824;28;20155;-78
2022/11/17 11:28:32;;;;;;;1.43;0.70;;;11.90;99.90;;;;;;5074895;28;20162;-78
2022/11/17 11:31:35;;;;;;;1.27;0.53;;;11.90;99.90;;;;;;5075178;28;20172;-78
2022/11/17 11:34:31;;;;;;;2.93;0.80;;;12.00;99.90;;;;;;5074697;28;20340;-78
2022/11/17 11:37:10;;;;;;;2.37;0.60;;;12.00;99.90;;;;;;5074637;28;20186;-78
2022/11/17 11:39:52;;;;;;;0.90;0.57;;;11.90;99.90;;;;;;5074328;28;20191;-78
2022/11/17 11:42:43;;;;;;;3.00;0.70;;;12.00;99.90;;;;;;5074361;28;20640;-78
2022/11/17 11:45:28;;;;;;;3.90;0.57;;;12.00;99.90;;;;;;5073555;28;20209;-78
2022/11/17 11:48:06;;;;;;;1.10;0.53;;;12.10;99.90;;;;;;5073222;28;20167;-78
2022/11/17 11:50:42;;;;;;;1.80;0.83;;;12.00;99.90;;;;;;5074930;28;20568;-78
2022/11/17 11:53:29;;;;;;;2.30;0.93;;;11.90;99.90;;;;;;5074562;28;20202;-78
2022/11/17 11:56:24;;;;;;;3.43;0.60;;;11.90;99.90;;;;;;5074901;28;20171;-78
2022/11/17 11:59:24;;;;;;;2.37;0.67;;;11.90;99.90;;;;;;5062353;28;20187;-78
2022/11/17 12:02:13;;;;;;;1.00;0.50;;;11.80;99.90;;;;;;5075400;28;20250;-78
2022/11/17 12:05:15;;;;;;;2.87;0.80;;;11.80;99.90;;;;;;5076676;28;20242;-78
2022/11/17 12:07:48;;;;;;;1.03;0.70;;;11.70;99.90;;;;;;5067913;28;20590;-78
2022/11/17 12:10:41;;;;;;;1.70;0.80;;;11.80;99.90;;;;;;5078387;28;20212;-78
2022/11/17 12:13:13;;;;;;;7.77;0.70;;;11.70;99.90;;;;;;5077842;28;20622;-78
2022/11/17 12:15:39;;;;;;;4.60;0.53;;;11.80;99.90;;;;;;5078250;28;20573;-78
2022/11/17 12:18:28;;;;;;;3.17;0.60;;;11.80;99.90;;;;;;5077850;28;20206;-78
2022/11/17 12:21:00;;;;;;;1.60;0.63;;;11.80;99.90;;;;;;5076690;28;20199;-78
2022/11/17 12:23:50;;;;;;;2.10;0.53;;;11.70;99.90;;;;;;5077830;28;20699;-78
2022/11/17 12:26:30;;;;;;;3.93;0.57;;;11.80;99.90;;;;;;5077637;28;20229;-78
2022/11/17 12:29:18;;;;;;;2.90;0.67;;;11.70;99.90;;;;;;5077305;28;20670;-78
2022/11/17 12:31:45;;;;;;;1.83;0.40;;;11.70;99.90;;;;;;5077807;28;20265;-78
2022/11/17 12:34:35;;;;;;;2.13;0.60;;;11.70;99.90;;;;;;5077549;28;20207;-78
2022/11/17 12:37:14;;;;;;;1.37;0.50;;;11.80;99.90;;;;;;5076527;28;20262;-79
2022/11/17 12:39:57;;;;;;;2.60;0.87;;;11.80;99.90;;;;;;5075845;28;20199;-78
2022/11/17 12:42:23;;;;;;;0.70;0.50;;;11.80;99.90;;;;;;5075891;28;20167;-78
2022/11/17 12:44:55;;;;;;;5.03;0.90;;;11.80;99.90;;;;;;5077315;28;20185;-78
2022/11/17 12:47:29;;;;;;;1.20;0.47;;;11.80;99.90;;;;;;5077571;28;20159;-78
2022/11/17 12:50:19;;;;;;;1.53;0.57;;;11.80;99.90;;;;;;5075909;28;20651;-78
2022/11/17 12:53:13;;;;;;;2.83;0.47;;;11.80;99.90;;;;;;5078243;28;20191;-78
2022/11/17 12:55:51;;;;;;;3.13;0.80;;;11.80;99.90;;;;;;5075774;28;20167;-78
2022/11/17 12:58:23;;;;;;;2.10;0.50;;;11.80;99.90;;;;;;5077270;28;20167;-78
2022/11/17 13:01:14;;;;;;;2.43;0.80;;;11.80;99.90;;;;;;5077508;28;20274;-78
2022/11/17 13:03:40;;;;;;;4.20;0.90;;;11.80;99.90;;;;;;5077312;28;20195;-78
2022/11/17 13:06:13;;;;;;;0.30;0.30;;;11.80;99.90;;;;;;5077077;28;20235;-78
2022/11/17 13:08:39;;;;;;;7.20;0.90;;;11.70;99.90;;;;;;5077552;28;20171;-78
2022/11/17 13:11:13;;;;;;;1.57;0.70;;;11.80;99.90;;;;;;5076029;28;20183;-78
2022/11/17 13:13:39;;;;;;;2.53;0.43;;;11.80;99.90;;;;;;5075633;28;20236;-78
2022/11/17 13:16:09;;;;;;;1.83;0.60;;;11.80;99.90;;;;;;5077149;28;20183;-78
2022/11/17 13:18:37;;;;;;;2.10;0.70;;;11.80;99.90;;;;;;5077339;28;20179;-78
2022/11/17 13:21:14;;;;;;;1.37;0.60;;;11.80;99.90;;;;;;5076664;28;20279;-78
2022/11/17 13:23:44;;;;;;;2.53;0.50;;;11.90;99.90;;;;;;5076338;28;20225;-78
2022/11/17 13:26:15;;;;;;;1.23;0.57;;;11.90;99.90;;;;;;5077047;28;20175;-79
2022/11/17 13:28:41;;;;;;;1.90;0.80;;;11.90;99.90;;;;;;5075367;28;20179;-78
2022/11/17 13:31:17;;;;;;;1.70;0.80;;;11.80;99.90;;;;;;5076878;28;20190;-78